Time;durP1;ratioP1;P1;durP2;ratioP2;P2;SDS_P1;SDS_P2;PMS_P1;PMS_P2;Temp;Humidity;BMP_temperature;BMP_pressure;BME280_temperature;BME280_humidity;BME280_pressure;Samples;Min_cycle;Max_cycle;Signal;HPM_P1;HPM_P2
2021/05/11 00:01:30;;;;;;;6.68;2.22;;;;;;;14.95;66.10;100256.81;4975000;28;20043;-66
2021/05/11 00:03:57;;;;;;;7.32;1.88;;;;;;;15.15;65.85;100255.78;4957131;28;20097;-66
2021/05/11 00:06:24;;;;;;;6.32;1.80;;;;;;;15.06;65.79;100260.72;4973869;28;20396;-66
2021/05/11 00:08:51;;;;;;;6.82;2.03;;;;;;;15.21;65.46;100257.16;4974104;28;20051;-65
2021/05/11 00:11:25;;;;;;;6.63;1.50;;;;;;;14.88;66.30;100259.41;4974366;28;20043;-66
2021/05/11 00:13:52;;;;;;;7.35;1.67;;;;;;;14.54;67.61;100254.41;4958175;28;20046;-66
2021/05/11 00:16:19;;;;;;;5.20;1.75;;;;;;;14.62;67.61;100259.03;4956969;28;20054;-66
2021/05/11 00:18:46;;;;;;;6.50;1.48;;;;;;;14.83;67.66;100254.09;4974914;28;20057;-67
2021/05/11 00:21:16;;;;;;;5.93;1.52;;;;;;;14.82;66.88;100257.25;4973411;28;20054;-62
2021/05/11 00:23:43;;;;;;;4.65;1.63;;;;;;;14.91;67.76;100253.13;4974462;28;20069;-66
2021/05/11 00:26:10;;;;;;;8.93;1.70;;;;;;;15.04;66.50;100253.88;4974226;28;20411;-67
2021/05/11 00:28:37;;;;;;;5.28;1.70;;;;;;;15.06;66.44;100246.84;4974183;28;20387;-64
2021/05/11 00:31:04;;;;;;;7.60;1.90;;;;;;;15.00;66.30;100244.66;4973511;28;20065;-68
2021/05/11 00:33:33;;;;;;;10.53;1.70;;;;;;;15.13;65.68;100249.00;4957322;28;20050;-64
2021/05/11 00:36:01;;;;;;;7.88;2.00;;;;;;;15.04;66.08;100251.13;4973763;28;20517;-64
2021/05/11 00:38:28;;;;;;;5.32;1.60;;;;;;;14.95;66.71;100247.69;4940418;28;20062;-68
2021/05/11 00:40:55;;;;;;;4.53;1.60;;;;;;;14.90;66.64;100250.72;4956734;28;20055;-62
2021/05/11 00:43:22;;;;;;;5.32;1.80;;;;;;;14.61;67.68;100249.09;4936627;29;20048;-65
2021/05/11 00:45:49;;;;;;;7.93;2.22;;;;;;;14.71;67.76;100258.88;4954333;29;20051;-65
2021/05/11 00:48:16;;;;;;;4.28;1.60;;;;;;;14.81;68.40;100252.84;4953342;29;20051;-62
2021/05/11 00:50:43;;;;;;;6.15;1.77;;;;;;;14.97;67.32;100245.38;4954244;28;20055;-63
2021/05/11 00:53:11;;;;;;;6.22;1.75;;;;;;;15.00;68.19;100248.25;4954528;29;20066;-64
2021/05/11 00:55:39;;;;;;;9.48;2.30;;;;;;;14.85;67.94;100237.09;4936529;28;20074;-63
2021/05/11 00:58:06;;;;;;;6.82;1.77;;;;;;;14.61;67.89;100238.00;4953363;29;20116;-62
2021/05/11 01:00:33;;;;;;;6.82;2.05;;;;;;;14.58;68.51;100233.97;4952312;29;20070;-62
2021/05/11 01:03:00;;;;;;;7.95;1.65;;;;;;;14.67;67.83;100233.84;4954016;29;20058;-64
2021/05/11 01:05:28;;;;;;;9.38;2.10;;;;;;;14.85;68.88;100228.78;4954085;29;20399;-62
2021/05/11 01:07:55;;;;;;;6.28;2.00;;;;;;;15.09;68.49;100223.13;4954024;29;20250;-64
2021/05/11 01:10:21;;;;;;;8.32;1.83;;;;;;;14.93;67.00;100220.31;4952887;28;20069;-62
2021/05/11 01:12:48;;;;;;;6.50;1.65;;;;;;;14.70;67.20;100222.03;4972590;28;20058;-61
2021/05/11 01:15:16;;;;;;;5.13;1.80;;;;;;;14.65;68.07;100222.28;4956197;28;20050;-63
2021/05/11 01:17:50;;;;;;;6.30;1.92;;;;;;;15.05;68.33;100222.22;4972147;28;20057;-62
2021/05/11 01:20:27;;;;;;;6.20;1.90;;;;;;;15.00;66.67;100222.47;4955619;28;20051;-63
2021/05/11 01:23:34;;;;;;;8.32;1.92;;;;;;;14.81;67.29;100222.34;4972233;28;20513;-62
2021/05/11 01:25:45;;;;;;;8.57;2.00;;;;;;;14.78;66.97;100231.38;4956977;28;20494;-62
2021/05/11 01:48:04;;;;;;;6.43;1.90;;;;;;;14.74;66.33;100228.50;4892880;29;20060;-64
2021/05/11 02:23:09;;;;;;;6.90;1.85;;;;;;;14.24;66.54;100217.06;4935197;29;20059;-65
2021/05/11 02:25:36;;;;;;;7.97;1.92;;;;;;;14.18;67.96;100221.22;4952172;28;20051;-62
2021/05/11 02:28:03;;;;;;;5.57;1.50;;;;;;;14.60;67.15;100220.59;4935060;29;20043;-62
2021/05/11 02:30:30;;;;;;;6.72;1.52;;;;;;;14.15;66.78;100213.63;4951757;29;20059;-66
2021/05/11 02:32:57;;;;;;;7.80;1.80;;;;;;;14.20;66.92;100221.69;4952424;29;20051;-64
2021/05/11 02:35:26;;;;;;;10.23;1.90;;;;;;;14.13;67.75;100219.53;4952690;28;20047;-62
2021/05/11 02:37:53;;;;;;;8.45;1.75;;;;;;;14.24;66.75;100220.63;4952037;29;20303;-66
2021/05/11 02:40:21;;;;;;;6.80;1.60;;;;;;;14.44;67.56;100224.44;4935064;29;20388;-63
2021/05/11 02:42:55;;;;;;;7.20;1.40;;;;;;;14.82;67.73;100224.75;4951651;28;20090;-63
2021/05/11 02:45:22;;;;;;;9.27;1.40;;;;;;;14.84;66.75;100222.44;4935270;29;20051;-62
2021/05/11 02:47:49;;;;;;;7.82;1.88;;;;;;;14.66;66.75;100233.00;4934861;28;20498;-62
2021/05/11 02:50:22;;;;;;;5.70;1.60;;;;;;;14.59;66.84;100230.03;4919494;29;20082;-62
2021/05/11 02:52:49;;;;;;;10.77;2.10;;;;;;;14.84;67.09;100227.97;4952385;29;20047;-66
2021/05/11 02:55:17;;;;;;;7.68;1.77;;;;;;;14.71;67.09;100231.97;4918131;29;20063;-62
2021/05/11 02:57:44;;;;;;;8.23;1.60;;;;;;;14.95;66.17;100231.03;4934595;29;20495;-63
2021/05/11 03:00:13;;;;;;;7.10;1.80;;;;;;;14.92;66.50;100238.13;4951963;29;20055;-64
2021/05/11 03:02:40;;;;;;;6.10;1.35;;;;;;;14.94;65.96;100235.78;4952077;29;20059;-65
2021/05/11 03:05:08;;;;;;;4.38;1.38;;;;;;;14.97;65.52;100229.53;4951596;28;20051;-66
2021/05/11 03:07:35;;;;;;;7.70;1.80;;;;;;;14.66;64.80;100241.34;4952090;29;20051;-63
2021/05/11 03:10:03;;;;;;;7.13;2.03;;;;;;;14.25;68.15;100244.44;4951815;29;20471;-64
2021/05/11 03:12:31;;;;;;;6.93;1.73;;;;;;;14.83;67.22;100244.97;4951948;29;20117;-68
2021/05/11 03:14:57;;;;;;;6.53;1.63;;;;;;;14.59;67.64;100246.66;4934179;28;20055;-63
2021/05/11 03:17:25;;;;;;;8.02;1.80;;;;;;;14.23;65.77;100255.03;4970611;28;20055;-64
2021/05/11 03:19:53;;;;;;;11.07;2.00;;;;;;;14.26;66.79;100248.84;4971140;28;20059;-64
2021/05/11 03:22:20;;;;;;;5.60;1.55;;;;;;;14.25;66.76;100252.75;4970484;28;20051;-62
2021/05/11 03:24:47;;;;;;;12.25;2.13;;;;;;;14.18;67.84;100255.28;4970519;28;20058;-63
2021/05/11 03:27:16;;;;;;;8.90;2.05;;;;;;;14.15;68.38;100253.22;4970863;28;20398;-62
2021/05/11 03:29:43;;;;;;;9.20;1.95;;;;;;;14.33;67.28;100251.03;4971017;28;20058;-63
2021/05/11 03:32:10;;;;;;;7.85;1.80;;;;;;;14.40;67.48;100256.78;4970555;28;20054;-66
2021/05/11 03:34:38;;;;;;;9.98;1.92;;;;;;;14.48;67.97;100251.09;4953720;28;20059;-65
2021/05/11 03:37:05;;;;;;;8.68;1.90;;;;;;;14.68;66.32;100249.28;4971494;28;20054;-65
2021/05/11 03:39:37;;;;;;;6.40;1.40;;;;;;;14.55;68.40;100248.56;4953170;28;20051;-67
2021/05/11 03:44:41;;;;;;;9.05;1.98;;;;;;;14.83;65.45;100248.56;4970843;28;20051;-65
2021/05/11 03:47:08;;;;;;;8.02;1.80;;;;;;;14.92;65.94;100240.09;4953704;28;20050;-63
2021/05/11 03:49:38;;;;;;;8.38;1.95;;;;;;;15.01;66.09;100243.50;4970966;28;20391;-68
2021/05/11 03:52:07;;;;;;;12.02;1.60;;;;;;;14.86;66.40;100245.06;4969933;28;20047;-64
2021/05/11 03:54:35;;;;;;;8.60;1.77;;;;;;;14.82;66.52;100243.38;4971112;28;20046;-66
2021/05/11 03:57:04;;;;;;;9.43;1.75;;;;;;;14.55;66.16;100244.97;4937350;28;20050;-64
2021/05/11 03:59:31;;;;;;;8.65;2.15;;;;;;;14.00;66.20;100242.06;4970983;28;20054;-66
2021/05/11 04:01:59;;;;;;;6.35;1.70;;;;;;;14.09;67.28;100254.59;4952909;28;20055;-63
2021/05/11 04:04:26;;;;;;;6.15;1.80;;;;;;;13.69;67.18;100253.69;4970399;28;20498;-62
2021/05/11 04:06:54;;;;;;;7.65;1.98;;;;;;;13.88;68.15;100261.44;4973150;28;20059;-62
2021/05/11 04:09:36;;;;;;;7.47;1.70;;;;;;;14.29;68.33;100263.97;4974425;28;20522;-64
2021/05/11 04:17:50;;;;;;;6.05;1.67;;;;;;;14.43;66.60;100256.09;4898731;29;20539;-62
2021/05/11 04:20:17;;;;;;;7.15;1.90;;;;;;;13.97;66.58;100251.84;4913862;29;20067;-61
2021/05/11 04:22:45;;;;;;;8.13;1.58;;;;;;;13.87;67.53;100243.19;4913002;29;20201;-64
2021/05/11 04:25:15;;;;;;;7.28;1.85;;;;;;;13.23;69.41;100254.88;4913664;29;20052;-65
2021/05/11 04:27:42;;;;;;;9.30;2.13;;;;;;;13.43;70.14;100250.44;4914062;29;20063;-63
2021/05/11 04:30:10;;;;;;;8.35;1.83;;;;;;;13.81;69.56;100250.13;4898366;29;20070;-63
2021/05/11 04:32:38;;;;;;;8.57;1.58;;;;;;;14.17;68.75;100245.38;4912982;29;20052;-64
2021/05/11 04:35:05;;;;;;;8.75;2.03;;;;;;;14.06;66.78;100235.91;4914220;29;20048;-64
2021/05/11 04:37:33;;;;;;;13.52;1.88;;;;;;;13.55;66.83;100251.25;4914349;29;20055;-64
2021/05/11 04:40:00;;;;;;;7.15;1.90;;;;;;;13.62;68.04;100244.34;4897439;29;20044;-62
2021/05/11 04:42:28;;;;;;;10.32;2.17;;;;;;;14.14;68.55;100250.81;4913243;29;20059;-62
2021/05/11 04:44:59;;;;;;;5.90;1.98;;;;;;;13.80;67.10;100240.19;4912774;29;20059;-62
2021/05/11 04:47:46;;;;;;;9.45;2.00;;;;;;;14.04;68.95;100252.06;4900442;29;20040;-63
2021/05/11 04:50:21;;;;;;;7.95;2.17;;;;;;;13.98;66.65;100242.38;4913670;29;20104;-63
2021/05/11 04:52:49;;;;;;;8.63;1.92;;;;;;;13.94;67.48;100240.66;4972312;28;20376;-63
2021/05/11 04:55:18;;;;;;;9.80;1.85;;;;;;;13.99;67.90;100240.41;4973263;28;20043;-62
2021/05/11 04:57:45;;;;;;;7.30;1.85;;;;;;;13.84;66.64;100241.13;4956033;28;20059;-62
2021/05/11 05:00:16;;;;;;;11.40;2.38;;;;;;;13.80;68.13;100240.19;4972752;28;20054;-60
2021/05/11 05:02:51;;;;;;;8.80;2.05;;;;;;;13.65;67.77;100241.69;4973243;28;20070;-63
2021/05/11 05:05:19;;;;;;;6.18;2.10;;;;;;;14.19;67.67;100237.50;4972915;28;20415;-62
2021/05/11 05:07:46;;;;;;;7.75;2.38;;;;;;;13.92;67.01;100240.19;4972859;28;20439;-63
2021/05/11 05:10:13;;;;;;;7.00;1.83;;;;;;;14.41;66.75;100239.00;4973325;28;20046;-62
2021/05/11 05:12:45;;;;;;;11.95;2.35;;;;;;;14.83;66.50;100245.78;4973101;28;20051;-63
2021/05/11 05:15:12;;;;;;;;;;;;;;;14.93;66.60;100239.72;4972715;28;20055;-62
2021/05/11 05:17:40;;;;;;;8.38;2.20;;;;;;;14.72;66.77;100244.66;4972848;28;19936;-63
2021/05/11 05:20:08;;;;;;;10.25;2.08;;;;;;;15.03;65.58;100239.22;4972308;28;20055;-62
2021/05/11 05:22:36;;;;;;;9.50;2.10;;;;;;;14.97;63.58;100240.66;4955950;28;20065;-63
2021/05/11 05:25:16;;;;;;;8.48;2.20;;;;;;;15.10;65.60;100244.94;4973299;28;20054;-64
2021/05/11 05:30:15;;;;;;;9.02;2.30;;;;;;;14.40;64.37;100251.25;4973064;28;20059;-66
2021/05/11 05:32:42;;;;;;;7.95;1.92;;;;;;;14.10;67.55;100247.09;4955064;28;20388;-65
2021/05/11 05:35:10;;;;;;;12.60;2.53;;;;;;;14.27;67.12;100241.34;4971870;28;20051;-65
2021/05/11 05:37:42;;;;;;;8.90;2.95;;;;;;;14.19;65.38;100245.81;4972779;28;20054;-63
2021/05/11 05:40:11;;;;;;;12.40;2.88;;;;;;;14.16;66.95;100248.47;4973016;28;20051;-65
2021/05/11 05:42:38;;;;;;;10.25;2.45;;;;;;;14.33;65.93;100256.56;4973424;28;20046;-67
2021/05/11 05:45:06;;;;;;;7.88;2.10;;;;;;;14.49;66.91;100255.47;4971823;28;20050;-64
2021/05/11 05:47:34;;;;;;;9.40;2.25;;;;;;;15.03;66.26;100260.63;4972006;28;20054;-64
2021/05/11 05:50:07;;;;;;;8.15;2.47;;;;;;;15.01;65.27;100265.69;4955397;28;20503;-62
2021/05/11 05:52:37;;;;;;;10.50;2.97;;;;;;;14.57;64.78;100264.81;4972037;28;20074;-68
2021/05/11 05:55:07;;;;;;;9.25;2.63;;;;;;;14.49;65.29;100268.53;4972208;28;20065;-66
2021/05/11 05:57:34;;;;;;;13.38;2.72;;;;;;;14.81;65.97;100266.69;4955531;28;20055;-64
2021/05/11 06:00:03;;;;;;;10.13;3.38;;;;;;;14.45;64.25;100264.84;4954486;28;20077;-65
2021/05/11 06:02:44;;;;;;;11.98;3.00;;;;;;;14.36;65.75;100275.25;4956977;28;20152;-62
2021/05/11 06:05:13;;;;;;;13.98;3.15;;;;;;;14.16;65.63;100271.44;4972307;28;20542;-63
2021/05/11 06:07:40;;;;;;;6.18;2.45;;;;;;;14.91;66.92;100272.53;4972465;28;20058;-68
2021/05/11 06:10:09;;;;;;;11.45;4.45;;;;;;;15.26;65.17;100284.63;4973490;28;20084;-64
2021/05/11 06:13:07;;;;;;;17.05;7.93;;;;;;;15.03;63.75;100283.59;4955483;28;20399;-63
2021/05/11 06:18:21;;;;;;;11.00;2.97;;;;;;;15.10;63.90;100281.00;4971361;28;20054;-64
2021/05/11 06:20:49;;;;;;;16.80;3.55;;;;;;;15.10;66.29;100271.91;4955045;28;20061;-64
2021/05/11 06:23:18;;;;;;;13.02;3.42;;;;;;;15.10;65.70;100278.25;4954327;28;20046;-62
2021/05/11 06:25:45;;;;;;;12.60;3.30;;;;;;;15.15;68.11;100266.88;4954922;28;20046;-65
2021/05/11 06:28:13;;;;;;;9.40;2.88;;;;;;;15.20;64.70;100274.16;4971372;28;20061;-64
2021/05/11 06:30:40;;;;;;;14.57;2.85;;;;;;;15.12;61.86;100273.16;4970715;28;20065;-63
2021/05/11 06:33:08;;;;;;;15.60;2.50;;;;;;;14.47;59.83;100279.19;4970797;28;20055;-63
2021/05/11 06:35:36;;;;;;;12.18;2.72;;;;;;;14.09;64.60;100290.59;4954264;28;20054;-64
2021/05/11 06:38:03;;;;;;;11.90;2.88;;;;;;;14.83;67.71;100284.59;4971220;28;20058;-64
2021/05/11 06:40:31;;;;;;;15.13;2.58;;;;;;;15.30;59.95;100282.78;4971075;28;20062;-67
2021/05/11 06:42:59;;;;;;;12.02;3.03;;;;;;;14.40;60.48;100282.50;4971478;28;20061;-62
2021/05/11 06:46:05;;;;;;;11.00;2.50;;;;;;;14.68;61.09;100291.69;4954440;28;20055;-66
2021/05/11 06:48:26;;;;;;;14.52;2.50;;;;;;;14.57;61.07;100284.22;4961690;28;20047;-65
2021/05/11 06:53:36;;;;;;;13.35;3.00;;;;;;;15.15;62.16;100294.63;4968726;28;20042;-64
2021/05/11 06:56:05;;;;;;;9.52;2.13;;;;;;;14.64;59.39;100289.97;4967550;28;20423;-63
2021/05/11 06:58:33;;;;;;;12.27;2.47;;;;;;;15.03;63.54;100291.91;4959359;28;20668;-62
2021/05/11 07:01:04;;;;;;;8.05;2.33;;;;;;;14.72;57.98;100299.28;4968199;28;20058;-63
2021/05/11 07:03:32;;;;;;;15.93;2.70;;;;;;;14.23;59.58;100302.13;4957654;28;20053;-66
2021/05/11 07:06:00;;;;;;;10.82;3.95;;;;;;;14.36;64.60;100305.75;4967760;28;20065;-62
2021/05/11 07:08:43;;;;;;;15.25;2.67;;;;;;;15.01;59.88;100308.09;4956070;28;20232;-62
2021/05/11 07:13:49;;;;;;;10.82;2.90;;;;;;;15.55;59.23;100298.13;4968143;28;20078;-64
2021/05/11 07:16:17;;;;;;;8.95;2.60;;;;;;;15.31;58.49;100292.69;4957516;28;20171;-63
2021/05/11 07:18:45;;;;;;;11.35;2.40;;;;;;;15.12;57.81;100308.41;4967289;28;20074;-65
2021/05/11 07:21:13;;;;;;;15.93;2.63;;;;;;;14.55;62.75;100311.47;4966074;28;20055;-65
2021/05/11 07:23:40;;;;;;;13.43;2.25;;;;;;;14.99;59.61;100315.97;4934026;29;20055;-68
2021/05/11 07:31:16;;;;;;;14.82;2.42;;;;;;;15.76;58.76;100311.75;4967721;28;20046;-64
2021/05/11 07:33:52;;;;;;;15.32;2.80;;;;;;;16.05;58.07;100316.88;4968071;28;20051;-66
2021/05/11 07:36:20;;;;;;;11.93;2.55;;;;;;;16.09;57.72;100320.53;4956665;28;20046;-62
2021/05/11 07:38:49;;;;;;;13.35;2.83;;;;;;;15.70;57.44;100322.34;4967275;28;20054;-65
2021/05/11 07:41:17;;;;;;;12.23;2.40;;;;;;;15.29;58.46;100321.97;4971513;28;20078;-66
2021/05/11 07:43:50;;;;;;;11.52;2.50;;;;;;;15.57;58.57;100318.03;4962735;28;20043;-66
2021/05/11 08:16:07;;;;;;;11.68;2.35;;;;;;;16.13;52.70;100337.28;4873475;29;20075;-65
2021/05/11 08:29:21;;;;;;;11.63;2.38;;;;;;;17.50;50.07;100335.66;4885706;29;20060;-66
2021/05/11 08:31:49;;;;;;;11.40;2.20;;;;;;;17.79;48.44;100335.00;4860064;29;20063;-65
2021/05/11 08:34:16;;;;;;;15.50;3.55;;;;;;;18.17;48.70;100331.25;4876020;29;20045;-64
2021/05/11 08:36:44;;;;;;;11.88;2.92;;;;;;;17.49;49.47;100339.59;4922575;28;20066;-66
2021/05/11 08:39:12;;;;;;;17.13;2.63;;;;;;;17.47;49.46;100336.38;4971421;28;20047;-62
2021/05/11 08:41:40;;;;;;;11.23;2.20;;;;;;;17.66;50.11;100324.41;4970521;28;20456;-65
2021/05/11 08:44:17;;;;;;;12.65;4.75;;;;;;;17.80;49.55;100325.44;4971450;28;20414;-65
2021/05/11 08:46:45;;;;;;;15.57;6.40;;;;;;;17.87;48.84;100331.16;4944472;28;20053;-67
2021/05/11 08:49:15;;;;;;;13.75;2.58;;;;;;;17.47;50.80;100336.38;4970757;28;20047;-66
2021/05/11 09:08:05;;;;;;;10.15;2.58;;;;;;;18.23;50.52;100337.31;4879923;29;20060;-62
2021/05/11 09:32:33;;;;;;;14.57;2.53;;;;;;;17.33;52.28;100377.03;4876725;29;20378;-63
2021/05/11 09:57:13;;;;;;;10.27;2.58;;;;;;;18.38;53.25;100395.75;4956965;28;20066;-62
2021/05/11 10:48:39;;;;;;;8.85;2.45;;;;;;;18.38;50.73;100420.84;4973590;28;20050;-70
2021/05/11 10:51:17;;;;;;;4.55;1.20;;;;;;;17.31;44.97;100421.13;4965987;28;20047;-65
2021/05/11 10:54:03;;;;;;;5.78;1.75;;;;;;;17.03;49.65;100432.47;4963832;28;20065;-66
2021/05/11 10:59:29;;;;;;;6.35;1.95;;;;;;;16.28;47.46;100423.47;4948882;28;20055;-66
2021/05/11 11:02:04;;;;;;;4.40;1.20;;;;;;;16.44;46.58;100429.03;4947889;28;20506;-63
2021/05/11 11:04:45;;;;;;;3.47;0.73;;;;;;;16.47;46.76;100425.56;4966669;28;20058;-70
2021/05/11 11:07:14;;;;;;;7.43;1.80;;;;;;;15.90;47.93;100420.44;4966205;28;20055;-68
2021/05/11 11:09:54;;;;;;;4.45;1.30;;;;;;;15.66;48.69;100426.97;4966033;28;20046;-65
2021/05/11 11:12:22;;;;;;;5.28;1.30;;;;;;;16.43;47.34;100422.66;4967079;28;20047;-66
2021/05/11 11:14:50;;;;;;;4.60;1.02;;;;;;;16.23;45.28;100428.47;4955000;28;20070;-63
2021/05/11 11:17:17;;;;;;;5.53;2.08;;;;;;;16.24;46.76;100425.34;4971073;28;20061;-70
2021/05/11 11:19:55;;;;;;;5.43;1.35;;;;;;;16.13;46.20;100420.66;4970946;28;20504;-67
2021/05/11 11:25:13;;;;;;;8.20;1.67;;;;;;;16.12;48.79;100424.63;4969549;28;20592;-68
2021/05/11 11:27:41;;;;;;;10.25;1.88;;;;;;;16.09;48.13;100431.69;4944589;28;20058;-70
2021/05/11 11:30:12;;;;;;;7.50;1.67;;;;;;;16.36;50.02;100422.47;4972128;28;20050;-67
2021/05/11 11:32:39;;;;;;;11.45;1.80;;;;;;;16.54;49.00;100426.53;4971863;28;20046;-67
2021/05/11 11:35:09;;;;;;;9.55;2.00;;;;;;;17.03;50.54;100426.09;4946248;28;20055;-67
2021/05/11 11:37:38;;;;;;;10.60;2.05;;;;;;;17.38;49.52;100427.63;4958822;28;20062;-65
2021/05/11 11:40:09;;;;;;;11.63;2.65;;;;;;;18.03;48.25;100419.44;4970082;28;20054;-64
2021/05/11 11:42:41;;;;;;;7.60;1.80;;;;;;;17.18;47.08;100416.88;4969763;28;20066;-63
2021/05/11 11:45:12;;;;;;;15.32;2.30;;;;;;;16.91;49.79;100417.84;4971072;28;20054;-66
2021/05/11 11:47:50;;;;;;;9.20;2.20;;;;;;;17.59;50.40;100430.13;4970434;28;20062;-65
2021/05/11 11:50:20;;;;;;;;;;;;;;;17.87;46.94;100428.69;4971320;28;20047;-67
2021/05/11 12:00:23;;;;;;;11.95;1.75;;;;;;;18.15;47.40;100447.13;4970857;28;20439;-67
2021/05/11 12:02:59;;;;;;;11.38;2.53;;;;;;;17.43;50.17;100459.97;4962344;28;20063;-66
2021/05/11 12:05:32;;;;;;;11.02;1.75;;;;;;;16.68;54.85;100465.00;4960038;28;20043;-65
2021/05/11 12:11:00;;;;;;;8.35;1.98;;;;;;;15.93;60.13;100477.28;4971510;28;20054;-68
2021/05/11 12:13:30;;;;;;;10.00;2.05;;;;;;;15.89;60.40;100474.41;4944774;28;20043;-69
2021/05/11 12:16:21;;;;;;;9.65;1.73;;;;;;;15.60;60.55;100483.09;4971356;28;20509;-66
2021/05/11 12:19:07;;;;;;;7.47;1.73;;;;;;;15.17;61.40;100486.53;4959513;28;20062;-68
2021/05/11 12:22:04;;;;;;;5.40;1.52;;;;;;;15.75;61.20;100483.16;4971350;28;20054;-66
2021/05/11 12:24:40;;;;;;;6.72;1.55;;;;;;;15.65;61.49;100482.84;4968352;28;20050;-67
2021/05/11 12:27:18;;;;;;;10.23;1.60;;;;;;;16.14;60.34;100477.88;4970295;28;20046;-68
2021/05/11 12:29:58;;;;;;;8.65;2.08;;;;;;;16.14;60.26;100477.88;4961903;28;20049;-68
2021/05/11 12:32:25;;;;;;;8.27;1.85;;;;;;;16.27;59.81;100482.16;4970756;28;20050;-66
2021/05/11 12:35:07;;;;;;;9.13;1.65;;;;;;;16.99;58.21;100478.88;4961342;28;20051;-67
2021/05/11 12:37:49;;;;;;;8.30;2.03;;;;;;;17.05;56.97;100479.41;4970350;28;20098;-65
2021/05/11 12:40:36;;;;;;;11.38;2.17;;;;;;;16.88;58.50;100480.59;4970606;28;20062;-67
2021/05/11 12:43:05;;;;;;;8.07;2.05;;;;;;;17.24;58.29;100480.25;4960410;28;20058;-66
2021/05/11 12:45:39;;;;;;;9.27;2.38;;;;;;;17.58;57.76;100478.63;4970462;28;20047;-64
2021/05/11 12:48:09;;;;;;;9.13;1.80;;;;;;;17.57;56.84;100477.81;4970287;28;20047;-67
2021/05/11 12:50:40;;;;;;;9.57;2.13;;;;;;;17.85;56.61;100481.19;4969863;28;20238;-67
2021/05/11 12:53:27;;;;;;;10.68;2.10;;;;;;;17.95;55.89;100477.00;4970860;28;20058;-68
2021/05/11 13:01:07;;;;;;;9.50;2.10;;;;;;;18.44;55.25;100474.34;4969333;28;20039;-67
2021/05/11 13:17:15;;;;;;;4.28;1.05;;;;;;;17.39;52.93;100498.88;4969011;28;20058;-66
2021/05/11 13:20:04;;;;;;;4.82;1.23;;;;;;;16.97;52.45;100494.31;4955541;28;20438;-67
2021/05/11 13:25:23;;;;;;;6.22;1.45;;;;;;;17.80;52.41;100502.97;4969375;28;20094;-64
2021/05/11 13:28:14;;;;;;;2.72;0.75;;;;;;;17.50;48.85;100507.50;4969115;28;20058;-64
2021/05/11 13:33:56;;;;;;;5.50;1.20;;;;;;;17.56;51.56;100512.41;4961066;28;20454;-67
2021/05/11 13:36:24;;;;;;;5.38;1.08;;;;;;;16.91;51.15;100518.84;4970653;28;20062;-65
2021/05/11 13:38:51;;;;;;;4.63;1.10;;;;;;;16.75;49.69;100516.03;4968940;28;20677;-66
2021/05/11 13:41:19;;;;;;;3.67;0.82;;;;;;;16.56;51.43;100520.72;4968596;28;20081;-65
2021/05/11 13:43:46;;;;;;;2.88;0.85;;;;;;;16.93;49.60;100512.91;4969276;28;20057;-66
2021/05/11 13:46:14;;;;;;;6.68;1.15;;;;;;;17.12;50.78;100513.75;4967511;28;20054;-65
2021/05/11 13:48:44;;;;;;;3.67;1.05;;;;;;;17.16;51.14;100516.63;4959998;28;20060;-65
2021/05/11 13:51:18;;;;;;;3.80;1.00;;;;;;;17.81;50.92;100512.94;4969405;28;20067;-64
2021/05/11 13:53:49;;;;;;;2.60;0.80;;;;;;;18.07;47.66;100517.84;4959672;28;20066;-71
2021/05/11 14:04:18;;;;;;;3.80;1.10;;;;;;;17.58;49.87;100521.22;4969994;28;20051;-67
2021/05/11 14:06:46;;;;;;;4.57;0.80;;;;;;;17.64;48.58;100516.94;4969076;28;20058;-71
2021/05/11 14:09:16;;;;;;;5.13;0.85;;;;;;;17.59;50.29;100533.94;4967657;28;20051;-68
2021/05/11 14:11:43;;;;;;;4.20;1.20;;;;;;;17.80;51.11;100534.41;4969255;28;20051;-66
2021/05/11 14:14:12;;;;;;;4.05;1.00;;;;;;;17.78;50.76;100530.41;4967869;28;20129;-69
2021/05/11 14:16:42;;;;;;;2.95;1.00;;;;;;;16.84;50.27;100536.13;4958003;28;20407;-66
2021/05/11 14:19:10;;;;;;;6.07;1.07;;;;;;;16.63;49.99;100541.16;4969675;28;20418;-69
2021/05/11 14:21:38;;;;;;;5.57;1.10;;;;;;;17.46;50.98;100540.00;4970293;28;20047;-69
2021/05/11 14:24:06;;;;;;;3.97;0.88;;;;;;;17.76;48.59;100536.34;4959573;28;20062;-66
2021/05/11 14:26:33;;;;;;;2.78;0.93;;;;;;;17.71;47.54;100539.38;4954575;28;20105;-67
2021/05/11 14:29:01;;;;;;;5.68;0.98;;;;;;;17.05;49.53;100538.63;4968750;28;20058;-66
2021/05/11 14:31:30;;;;;;;2.42;0.77;;;;;;;17.52;49.98;100544.94;4967995;28;20065;-67
2021/05/11 14:34:01;;;;;;;3.28;0.82;;;;;;;17.19;49.29;100541.75;4969219;28;20075;-67
2021/05/11 14:36:29;;;;;;;3.00;1.00;;;;;;;18.01;49.53;100545.19;4941921;28;20050;-69
2021/05/11 14:38:56;;;;;;;3.88;1.17;;;;;;;18.12;47.65;100542.63;4959775;28;20673;-70
2021/05/11 14:41:24;;;;;;;3.88;0.88;;;;;;;17.99;47.67;100548.34;4958840;28;20058;-68
2021/05/11 14:43:51;;;;;;;1.52;0.70;;;;;;;18.24;47.21;100539.66;4959904;28;20059;-69
2021/05/11 14:46:19;;;;;;;1.83;0.60;;;;;;;17.66;48.00;100541.69;4968552;28;20062;-67
2021/05/11 14:48:46;;;;;;;2.17;0.73;;;;;;;17.95;48.08;100552.25;4943310;28;20668;-70
2021/05/11 14:51:14;;;;;;;4.28;0.60;;;;;;;17.32;47.55;100551.63;4968216;28;20434;-65
2021/05/11 14:53:42;;;;;;;3.08;0.80;;;;;;;17.73;48.69;100548.19;4967761;28;20087;-70
2021/05/11 14:56:11;;;;;;;4.95;1.00;;;;;;;17.64;47.13;100552.38;4966838;28;20050;-64
2021/05/11 14:58:39;;;;;;;4.70;1.00;;;;;;;17.54;47.92;100547.38;4965859;28;20051;-66
2021/05/11 15:01:08;;;;;;;2.75;0.70;;;;;;;17.90;47.36;100542.19;4965977;28;20407;-68
2021/05/11 15:03:39;;;;;;;3.00;1.00;;;;;;;18.43;46.56;100545.28;4954434;28;20047;-67
2021/05/11 15:06:15;;;;;;;5.55;1.10;;;;;;;18.63;47.45;100552.41;4940856;28;20066;-67
2021/05/11 15:08:43;;;;;;;3.80;0.90;;;;;;;18.63;46.18;100553.22;4968443;28;20055;-69
2021/05/11 15:11:11;;;;;;;6.40;3.45;;;;;;;18.62;46.43;100556.38;4964938;28;20480;-69
2021/05/11 15:13:41;;;;;;;9.07;1.38;;;;;;;18.82;45.20;100557.94;4967036;28;20398;-69
2021/05/11 15:16:12;;;;;;;4.10;1.40;;;;;;;18.90;44.40;100566.03;4955253;28;20069;-64
2021/05/11 15:18:40;;;;;;;4.70;1.10;;;;;;;18.92;43.58;100563.69;4940716;28;20055;-67
2021/05/11 15:21:08;;;;;;;4.85;1.20;;;;;;;18.67;43.25;100558.88;4967230;28;20051;-65
2021/05/11 15:23:36;;;;;;;6.47;1.55;;;;;;;18.79;44.15;100564.25;4966587;28;20046;-69
2021/05/11 15:26:03;;;;;;;5.20;1.50;;;;;;;18.84;44.18;100563.94;4955354;28;20054;-67
2021/05/11 15:28:31;;;;;;;6.47;1.40;;;;;;;18.92;45.57;100563.69;4956844;28;20075;-69
2021/05/11 15:30:58;;;;;;;7.35;1.48;;;;;;;19.06;45.28;100566.72;4964134;28;20043;-64
2021/05/11 15:33:27;;;;;;;6.18;1.30;;;;;;;19.19;45.42;100560.94;4954826;28;20051;-68
2021/05/11 15:35:54;;;;;;;8.38;1.60;;;;;;;19.01;44.63;100564.25;4967028;28;20069;-70
2021/05/11 15:38:22;;;;;;;8.98;1.80;;;;;;;18.79;45.94;100565.03;4944589;28;20063;-66
2021/05/11 15:40:50;;;;;;;5.18;1.58;;;;;;;18.54;45.03;100565.78;4948185;28;20051;-66
2021/05/11 15:43:18;;;;;;;6.35;1.77;;;;;;;18.55;47.17;100564.63;4954928;28;20396;-66
2021/05/11 15:45:47;;;;;;;4.70;1.40;;;;;;;18.96;46.26;100563.75;4957864;28;20065;-68
2021/05/11 15:48:14;;;;;;;7.13;1.50;;;;;;;18.80;45.30;100572.25;4966768;28;20046;-69
2021/05/11 15:50:47;;;;;;;5.38;2.00;;;;;;;18.87;46.44;100565.97;4968070;28;20521;-67
2021/05/11 15:53:16;;;;;;;10.48;4.20;;;;;;;18.81;46.16;100567.50;4965768;28;20058;-68
2021/05/11 15:55:46;;;;;;;5.10;1.97;;;;;;;19.03;46.26;100569.47;4955521;28;20054;-64
2021/05/11 15:58:15;;;;;;;7.00;1.88;;;;;;;18.89;46.51;100569.22;4967410;28;20816;-66
2021/05/11 16:00:46;;;;;;;9.77;1.70;;;;;;;18.98;44.87;100569.78;4966272;28;20062;-65
2021/05/11 16:03:13;;;;;;;5.93;1.70;;;;;;;19.12;46.71;100561.63;4970622;28;20438;-68
2021/05/11 16:05:46;;;;;;;5.20;1.40;;;;;;;19.23;45.52;100562.59;4969961;28;20062;-69
2021/05/11 16:08:16;;;;;;;7.82;2.65;;;;;;;19.16;45.12;100570.06;4969143;28;20055;-66
2021/05/11 16:10:47;;;;;;;7.30;2.42;;;;;;;18.98;45.11;100575.34;4970654;28;20062;-67
2021/05/11 16:13:20;;;;;;;7.00;2.10;;;;;;;18.98;46.29;100566.97;4943721;28;20510;-73